sensor_id;sensor_type;location;lat;lon;timestamp;temperature;humidity
16287;DHT22;8251;53.568;10.018;2023-08-20T00:01:22;23.80;86.60
16287;DHT22;8251;53.568;10.018;2023-08-20T00:03:51;23.80;86.70
16287;DHT22;8251;53.568;10.018;2023-08-20T00:06:19;23.70;86.70
16287;DHT22;8251;53.568;10.018;2023-08-20T00:08:48;23.70;86.80
16287;DHT22;8251;53.568;10.018;2023-08-20T00:11:15;23.70;86.90
16287;DHT22;8251;53.568;10.018;2023-08-20T00:13:43;23.70;86.90
16287;DHT22;8251;53.568;10.018;2023-08-20T00:16:10;23.70;86.90
16287;DHT22;8251;53.568;10.018;2023-08-20T00:18:38;23.70;86.90
16287;DHT22;8251;53.568;10.018;2023-08-20T00:21:05;23.70;87.00
16287;DHT22;8251;53.568;10.018;2023-08-20T00:23:33;23.60;87.10
16287;DHT22;8251;53.568;10.018;2023-08-20T00:26:02;23.60;87.20
16287;DHT22;8251;53.568;10.018;2023-08-20T00:28:29;23.60;87.30
16287;DHT22;8251;53.568;10.018;2023-08-20T00:30:56;23.50;87.30
16287;DHT22;8251;53.568;10.018;2023-08-20T00:33:23;23.50;87.50
16287;DHT22;8251;53.568;10.018;2023-08-20T00:35:50;23.50;87.50
16287;DHT22;8251;53.568;10.018;2023-08-20T00:38:17;23.40;87.50
16287;DHT22;8251;53.568;10.018;2023-08-20T00:40:43;23.40;87.50
16287;DHT22;8251;53.568;10.018;2023-08-20T00:43:12;23.40;87.60
16287;DHT22;8251;53.568;10.018;2023-08-20T00:45:40;23.40;87.70
16287;DHT22;8251;53.568;10.018;2023-08-20T00:48:07;23.40;87.70
16287;DHT22;8251;53.568;10.018;2023-08-20T00:50:35;23.40;87.90
16287;DHT22;8251;53.568;10.018;2023-08-20T00:53:02;23.30;87.80
16287;DHT22;8251;53.568;10.018;2023-08-20T00:55:29;23.30;87.90
16287;DHT22;8251;53.568;10.018;2023-08-20T00:57:56;23.30;88.00
16287;DHT22;8251;53.568;10.018;2023-08-20T01:00:24;23.30;88.00
16287;DHT22;8251;53.568;10.018;2023-08-20T01:02:51;23.30;88.00
16287;DHT22;8251;53.568;10.018;2023-08-20T01:05:19;23.30;88.00
16287;DHT22;8251;53.568;10.018;2023-08-20T01:07:58;23.20;88.00
16287;DHT22;8251;53.568;10.018;2023-08-20T01:10:33;23.20;88.00
16287;DHT22;8251;53.568;10.018;2023-08-20T01:13:00;23.20;88.10
16287;DHT22;8251;53.568;10.018;2023-08-20T01:15:29;23.20;88.20
16287;DHT22;8251;53.568;10.018;2023-08-20T01:17:56;23.20;88.30
16287;DHT22;8251;53.568;10.018;2023-08-20T01:20:26;23.10;88.20
16287;DHT22;8251;53.568;10.018;2023-08-20T01:23:16;23.10;88.30
16287;DHT22;8251;53.568;10.018;2023-08-20T01:26:00;23.10;88.30
16287;DHT22;8251;53.568;10.018;2023-08-20T01:28:35;23.10;88.30
16287;DHT22;8251;53.568;10.018;2023-08-20T01:31:03;23.00;88.40
16287;DHT22;8251;53.568;10.018;2023-08-20T01:33:31;23.00;88.50
16287;DHT22;8251;53.568;10.018;2023-08-20T01:35:58;23.00;88.60
16287;DHT22;8251;53.568;10.018;2023-08-20T01:38:25;23.00;88.60
16287;DHT22;8251;53.568;10.018;2023-08-20T01:40:51;23.00;88.70
16287;DHT22;8251;53.568;10.018;2023-08-20T01:43:18;23.00;88.80
16287;DHT22;8251;53.568;10.018;2023-08-20T01:45:47;23.00;88.80
16287;DHT22;8251;53.568;10.018;2023-08-20T01:48:13;23.00;88.80
16287;DHT22;8251;53.568;10.018;2023-08-20T01:50:40;22.90;88.80
16287;DHT22;8251;53.568;10.018;2023-08-20T01:53:07;22.90;89.10
16287;DHT22;8251;53.568;10.018;2023-08-20T01:55:35;22.90;89.10
16287;DHT22;8251;53.568;10.018;2023-08-20T01:58:02;22.90;89.20
16287;DHT22;8251;53.568;10.018;2023-08-20T02:00:29;22.90;89.60
16287;DHT22;8251;53.568;10.018;2023-08-20T02:02:57;22.90;89.20
16287;DHT22;8251;53.568;10.018;2023-08-20T02:05:24;22.90;89.20
16287;DHT22;8251;53.568;10.018;2023-08-20T02:07:51;22.90;89.20
16287;DHT22;8251;53.568;10.018;2023-08-20T02:10:18;22.80;89.10
16287;DHT22;8251;53.568;10.018;2023-08-20T02:12:46;22.80;89.10
16287;DHT22;8251;53.568;10.018;2023-08-20T02:15:13;22.80;89.10
16287;DHT22;8251;53.568;10.018;2023-08-20T02:17:40;22.80;89.20
16287;DHT22;8251;53.568;10.018;2023-08-20T02:20:09;22.80;89.20
16287;DHT22;8251;53.568;10.018;2023-08-20T02:22:36;22.70;89.10
16287;DHT22;8251;53.568;10.018;2023-08-20T02:25:03;22.70;89.10
16287;DHT22;8251;53.568;10.018;2023-08-20T02:27:30;22.70;89.10
16287;DHT22;8251;53.568;10.018;2023-08-20T02:29:58;22.80;89.20
16287;DHT22;8251;53.568;10.018;2023-08-20T02:32:25;22.70;89.20
16287;DHT22;8251;53.568;10.018;2023-08-20T02:34:52;22.70;89.20
16287;DHT22;8251;53.568;10.018;2023-08-20T02:37:21;22.70;89.40
16287;DHT22;8251;53.568;10.018;2023-08-20T02:39:48;22.70;89.60
16287;DHT22;8251;53.568;10.018;2023-08-20T02:42:15;22.60;89.50
16287;DHT22;8251;53.568;10.018;2023-08-20T02:44:41;22.60;89.70
16287;DHT22;8251;53.568;10.018;2023-08-20T02:47:08;22.60;89.90
16287;DHT22;8251;53.568;10.018;2023-08-20T02:49:35;22.60;89.90
16287;DHT22;8251;53.568;10.018;2023-08-20T02:52:02;22.60;90.00
16287;DHT22;8251;53.568;10.018;2023-08-20T02:54:31;22.60;90.00
16287;DHT22;8251;53.568;10.018;2023-08-20T02:56:58;22.60;89.90
16287;DHT22;8251;53.568;10.018;2023-08-20T02:59:25;22.60;89.90
16287;DHT22;8251;53.568;10.018;2023-08-20T03:01:52;22.50;89.70
16287;DHT22;8251;53.568;10.018;2023-08-20T03:04:19;22.60;89.90
16287;DHT22;8251;53.568;10.018;2023-08-20T03:06:46;22.50;90.00
16287;DHT22;8251;53.568;10.018;2023-08-20T03:09:12;22.50;90.00
16287;DHT22;8251;53.568;10.018;2023-08-20T03:11:41;22.50;90.00
16287;DHT22;8251;53.568;10.018;2023-08-20T03:14:08;22.50;90.00
16287;DHT22;8251;53.568;10.018;2023-08-20T03:16:35;22.50;90.00
16287;DHT22;8251;53.568;10.018;2023-08-20T03:19:03;22.50;90.00
16287;DHT22;8251;53.568;10.018;2023-08-20T03:21:30;22.50;90.10
16287;DHT22;8251;53.568;10.018;2023-08-20T03:23:57;22.50;90.10
16287;DHT22;8251;53.568;10.018;2023-08-20T03:26:23;22.50;90.20
16287;DHT22;8251;53.568;10.018;2023-08-20T03:28:52;22.40;90.30
16287;DHT22;8251;53.568;10.018;2023-08-20T03:31:18;22.40;90.20
16287;DHT22;8251;53.568;10.018;2023-08-20T03:33:45;22.50;90.30
16287;DHT22;8251;53.568;10.018;2023-08-20T03:36:12;22.40;90.30
16287;DHT22;8251;53.568;10.018;2023-08-20T03:38:39;22.40;90.30
16287;DHT22;8251;53.568;10.018;2023-08-20T03:41:06;22.40;90.30
16287;DHT22;8251;53.568;10.018;2023-08-20T03:43:33;22.40;90.30
16287;DHT22;8251;53.568;10.018;2023-08-20T03:46:01;22.40;90.40
16287;DHT22;8251;53.568;10.018;2023-08-20T03:48:28;22.40;90.40
16287;DHT22;8251;53.568;10.018;2023-08-20T03:50:56;22.40;90.40
16287;DHT22;8251;53.568;10.018;2023-08-20T03:53:23;22.40;90.40
16287;DHT22;8251;53.568;10.018;2023-08-20T03:55:50;22.40;90.30
16287;DHT22;8251;53.568;10.018;2023-08-20T03:58:17;22.40;90.40
16287;DHT22;8251;53.568;10.018;2023-08-20T04:00:44;22.40;90.40
16287;DHT22;8251;53.568;10.018;2023-08-20T04:03:12;22.40;90.40
16287;DHT22;8251;53.568;10.018;2023-08-20T04:05:40;22.40;90.50
16287;DHT22;8251;53.568;10.018;2023-08-20T04:08:07;22.40;90.60
16287;DHT22;8251;53.568;10.018;2023-08-20T04:10:34;22.40;90.70
16287;DHT22;8251;53.568;10.018;2023-08-20T04:13:01;22.40;90.70
16287;DHT22;8251;53.568;10.018;2023-08-20T04:15:29;22.40;90.80
16287;DHT22;8251;53.568;10.018;2023-08-20T04:17:56;22.40;90.80
16287;DHT22;8251;53.568;10.018;2023-08-20T04:20:24;22.40;90.90
16287;DHT22;8251;53.568;10.018;2023-08-20T04:22:52;22.40;90.90
16287;DHT22;8251;53.568;10.018;2023-08-20T04:25:18;22.50;90.90
16287;DHT22;8251;53.568;10.018;2023-08-20T04:27:45;22.50;90.80
16287;DHT22;8251;53.568;10.018;2023-08-20T04:30:13;22.50;90.90
16287;DHT22;8251;53.568;10.018;2023-08-20T04:32:40;22.50;90.90
16287;DHT22;8251;53.568;10.018;2023-08-20T04:35:07;22.50;90.90
16287;DHT22;8251;53.568;10.018;2023-08-20T04:37:36;22.50;91.00
16287;DHT22;8251;53.568;10.018;2023-08-20T04:40:03;22.60;91.00
16287;DHT22;8251;53.568;10.018;2023-08-20T04:42:31;22.60;91.10
16287;DHT22;8251;53.568;10.018;2023-08-20T04:44:58;22.50;91.00
16287;DHT22;8251;53.568;10.018;2023-08-20T04:47:24;22.60;91.00
16287;DHT22;8251;53.568;10.018;2023-08-20T04:49:51;22.60;91.00
16287;DHT22;8251;53.568;10.018;2023-08-20T04:52:18;22.60;91.00
16287;DHT22;8251;53.568;10.018;2023-08-20T04:54:47;22.60;91.00
16287;DHT22;8251;53.568;10.018;2023-08-20T04:57:14;22.60;90.90
16287;DHT22;8251;53.568;10.018;2023-08-20T04:59:41;22.60;90.90
16287;DHT22;8251;53.568;10.018;2023-08-20T05:02:10;22.60;90.80
16287;DHT22;8251;53.568;10.018;2023-08-20T05:04:37;22.60;90.80
16287;DHT22;8251;53.568;10.018;2023-08-20T05:07:04;22.60;90.80
16287;DHT22;8251;53.568;10.018;2023-08-20T05:09:31;22.60;90.80
16287;DHT22;8251;53.568;10.018;2023-08-20T05:11:59;22.60;90.80
16287;DHT22;8251;53.568;10.018;2023-08-20T05:14:26;22.60;90.90
16287;DHT22;8251;53.568;10.018;2023-08-20T05:16:53;22.60;91.00
16287;DHT22;8251;53.568;10.018;2023-08-20T05:19:20;22.60;91.00
16287;DHT22;8251;53.568;10.018;2023-08-20T05:21:47;22.60;91.00
16287;DHT22;8251;53.568;10.018;2023-08-20T05:24:14;22.70;91.00
16287;DHT22;8251;53.568;10.018;2023-08-20T05:26:40;22.70;91.00
16287;DHT22;8251;53.568;10.018;2023-08-20T05:29:08;22.70;91.00
16287;DHT22;8251;53.568;10.018;2023-08-20T05:31:36;22.70;91.00
16287;DHT22;8251;53.568;10.018;2023-08-20T05:34:03;22.70;91.00
16287;DHT22;8251;53.568;10.018;2023-08-20T05:36:29;22.80;91.00
16287;DHT22;8251;53.568;10.018;2023-08-20T05:38:56;22.80;91.00
16287;DHT22;8251;53.568;10.018;2023-08-20T05:41:23;22.80;90.90
16287;DHT22;8251;53.568;10.018;2023-08-20T05:43:50;22.90;90.80
16287;DHT22;8251;53.568;10.018;2023-08-20T05:46:18;22.90;90.80
16287;DHT22;8251;53.568;10.018;2023-08-20T05:48:45;22.90;90.80
16287;DHT22;8251;53.568;10.018;2023-08-20T05:51:12;22.90;90.80
16287;DHT22;8251;53.568;10.018;2023-08-20T05:53:39;22.90;90.80
16287;DHT22;8251;53.568;10.018;2023-08-20T05:56:05;23.00;90.70
16287;DHT22;8251;53.568;10.018;2023-08-20T05:58:32;23.00;90.60
16287;DHT22;8251;53.568;10.018;2023-08-20T06:00:59;23.00;90.60
16287;DHT22;8251;53.568;10.018;2023-08-20T06:03:28;23.00;90.50
16287;DHT22;8251;53.568;10.018;2023-08-20T06:05:59;23.00;90.50
16287;DHT22;8251;53.568;10.018;2023-08-20T06:08:27;23.10;90.50
16287;DHT22;8251;53.568;10.018;2023-08-20T06:10:53;23.10;90.40
16287;DHT22;8251;53.568;10.018;2023-08-20T06:13:20;23.10;90.30
16287;DHT22;8251;53.568;10.018;2023-08-20T06:15:47;23.20;90.30
16287;DHT22;8251;53.568;10.018;2023-08-20T06:18:14;23.20;90.20
16287;DHT22;8251;53.568;10.018;2023-08-20T06:20:43;23.20;90.10
16287;DHT22;8251;53.568;10.018;2023-08-20T06:23:10;23.20;90.10
16287;DHT22;8251;53.568;10.018;2023-08-20T06:25:38;23.20;90.00
16287;DHT22;8251;53.568;10.018;2023-08-20T06:28:05;23.20;90.00
16287;DHT22;8251;53.568;10.018;2023-08-20T06:30:32;23.20;89.80
16287;DHT22;8251;53.568;10.018;2023-08-20T06:32:59;23.30;89.80
16287;DHT22;8251;53.568;10.018;2023-08-20T06:35:26;23.30;89.60
16287;DHT22;8251;53.568;10.018;2023-08-20T06:37:54;23.30;89.70
16287;DHT22;8251;53.568;10.018;2023-08-20T06:40:21;23.40;89.70
16287;DHT22;8251;53.568;10.018;2023-08-20T06:42:48;23.40;89.50
16287;DHT22;8251;53.568;10.018;2023-08-20T06:45:15;23.40;88.80
16287;DHT22;8251;53.568;10.018;2023-08-20T06:47:42;23.30;88.90
16287;DHT22;8251;53.568;10.018;2023-08-20T06:50:09;23.30;88.90
16287;DHT22;8251;53.568;10.018;2023-08-20T06:52:36;23.30;88.70
16287;DHT22;8251;53.568;10.018;2023-08-20T06:55:05;23.40;88.70
16287;DHT22;8251;53.568;10.018;2023-08-20T06:57:32;23.40;88.60
16287;DHT22;8251;53.568;10.018;2023-08-20T06:59:59;23.50;88.50
16287;DHT22;8251;53.568;10.018;2023-08-20T07:02:26;23.50;88.20
16287;DHT22;8251;53.568;10.018;2023-08-20T07:04:53;23.60;88.10
16287;DHT22;8251;53.568;10.018;2023-08-20T07:07:20;23.70;87.90
16287;DHT22;8251;53.568;10.018;2023-08-20T07:09:47;23.80;87.60
16287;DHT22;8251;53.568;10.018;2023-08-20T07:12:15;23.80;87.40
16287;DHT22;8251;53.568;10.018;2023-08-20T07:14:43;23.80;87.30
16287;DHT22;8251;53.568;10.018;2023-08-20T07:17:10;23.90;87.10
16287;DHT22;8251;53.568;10.018;2023-08-20T07:19:36;23.90;87.00
16287;DHT22;8251;53.568;10.018;2023-08-20T07:22:03;23.90;87.10
16287;DHT22;8251;53.568;10.018;2023-08-20T07:24:30;23.90;86.60
16287;DHT22;8251;53.568;10.018;2023-08-20T07:27:00;24.10;86.70
16287;DHT22;8251;53.568;10.018;2023-08-20T07:29:30;24.10;86.20
16287;DHT22;8251;53.568;10.018;2023-08-20T07:31:57;24.20;86.30
16287;DHT22;8251;53.568;10.018;2023-08-20T07:34:29;24.20;86.40
16287;DHT22;8251;53.568;10.018;2023-08-20T07:36:56;24.50;85.70
16287;DHT22;8251;53.568;10.018;2023-08-20T07:39:23;24.80;85.50
16287;DHT22;8251;53.568;10.018;2023-08-20T07:41:50;25.30;84.70
16287;DHT22;8251;53.568;10.018;2023-08-20T07:44:16;25.80;83.50
16287;DHT22;8251;53.568;10.018;2023-08-20T07:46:45;26.60;81.70
16287;DHT22;8251;53.568;10.018;2023-08-20T07:49:11;27.30;78.80
16287;DHT22;8251;53.568;10.018;2023-08-20T07:51:38;27.70;76.40
16287;DHT22;8251;53.568;10.018;2023-08-20T07:54:05;27.70;74.90
16287;DHT22;8251;53.568;10.018;2023-08-20T07:56:32;27.70;76.00
16287;DHT22;8251;53.568;10.018;2023-08-20T07:58:59;28.10;75.20
16287;DHT22;8251;53.568;10.018;2023-08-20T08:01:26;28.80;73.10
16287;DHT22;8251;53.568;10.018;2023-08-20T08:03:54;29.80;70.30
16287;DHT22;8251;53.568;10.018;2023-08-20T08:06:21;30.70;66.60
16287;DHT22;8251;53.568;10.018;2023-08-20T08:08:50;31.60;64.10
16287;DHT22;8251;53.568;10.018;2023-08-20T08:11:17;32.30;61.20
16287;DHT22;8251;53.568;10.018;2023-08-20T08:13:45;32.80;59.60
16287;DHT22;8251;53.568;10.018;2023-08-20T08:16:15;33.00;57.90
16287;DHT22;8251;53.568;10.018;2023-08-20T08:18:48;33.00;58.30
16287;DHT22;8251;53.568;10.018;2023-08-20T08:21:22;33.00;57.90
16287;DHT22;8251;53.568;10.018;2023-08-20T08:23:54;32.90;57.70
16287;DHT22;8251;53.568;10.018;2023-08-20T08:26:23;32.80;57.70
16287;DHT22;8251;53.568;10.018;2023-08-20T08:28:51;32.60;58.00
16287;DHT22;8251;53.568;10.018;2023-08-20T08:31:18;32.60;57.60
16287;DHT22;8251;53.568;10.018;2023-08-20T08:33:44;32.60;57.80
16287;DHT22;8251;53.568;10.018;2023-08-20T08:36:11;32.60;58.10
16287;DHT22;8251;53.568;10.018;2023-08-20T08:38:43;32.60;58.00
16287;DHT22;8251;53.568;10.018;2023-08-20T08:41:14;32.70;57.80
16287;DHT22;8251;53.568;10.018;2023-08-20T08:43:43;32.80;57.50
16287;DHT22;8251;53.568;10.018;2023-08-20T08:46:13;32.90;57.30
16287;DHT22;8251;53.568;10.018;2023-08-20T08:48:42;33.00;56.90
16287;DHT22;8251;53.568;10.018;2023-08-20T08:51:11;33.10;56.10
16287;DHT22;8251;53.568;10.018;2023-08-20T08:53:39;33.20;55.90
16287;DHT22;8251;53.568;10.018;2023-08-20T08:56:08;33.40;55.50
16287;DHT22;8251;53.568;10.018;2023-08-20T08:58:35;33.60;55.70
16287;DHT22;8251;53.568;10.018;2023-08-20T09:01:02;33.70;55.70
16287;DHT22;8251;53.568;10.018;2023-08-20T09:03:29;33.90;55.20
16287;DHT22;8251;53.568;10.018;2023-08-20T09:05:58;34.10;54.60
16287;DHT22;8251;53.568;10.018;2023-08-20T09:08:27;34.30;53.90
16287;DHT22;8251;53.568;10.018;2023-08-20T09:11:01;34.60;53.40
16287;DHT22;8251;53.568;10.018;2023-08-20T09:13:38;34.90;51.80
16287;DHT22;8251;53.568;10.018;2023-08-20T09:16:09;35.10;51.40
16287;DHT22;8251;53.568;10.018;2023-08-20T09:19:00;35.40;51.10
16287;DHT22;8251;53.568;10.018;2023-08-20T09:21:31;35.60;50.50
16287;DHT22;8251;53.568;10.018;2023-08-20T09:23:58;35.70;50.60
16287;DHT22;8251;53.568;10.018;2023-08-20T09:26:29;35.90;50.30
16287;DHT22;8251;53.568;10.018;2023-08-20T09:28:58;36.00;49.80
16287;DHT22;8251;53.568;10.018;2023-08-20T09:31:39;36.00;49.60
16287;DHT22;8251;53.568;10.018;2023-08-20T09:34:16;36.00;49.80
16287;DHT22;8251;53.568;10.018;2023-08-20T09:36:55;36.10;50.60
16287;DHT22;8251;53.568;10.018;2023-08-20T09:39:26;36.20;50.30
16287;DHT22;8251;53.568;10.018;2023-08-20T09:41:57;36.00;49.80
16287;DHT22;8251;53.568;10.018;2023-08-20T09:44:27;35.90;50.20
16287;DHT22;8251;53.568;10.018;2023-08-20T09:46:59;36.00;50.30
16287;DHT22;8251;53.568;10.018;2023-08-20T09:49:29;36.10;49.70
16287;DHT22;8251;53.568;10.018;2023-08-20T09:52:02;36.30;49.60
16287;DHT22;8251;53.568;10.018;2023-08-20T09:54:55;36.30;49.80
16287;DHT22;8251;53.568;10.018;2023-08-20T09:57:33;36.30;50.00
16287;DHT22;8251;53.568;10.018;2023-08-20T10:00:02;36.00;50.00
16287;DHT22;8251;53.568;10.018;2023-08-20T10:02:31;35.90;50.20
16287;DHT22;8251;53.568;10.018;2023-08-20T10:04:59;35.80;50.90
16287;DHT22;8251;53.568;10.018;2023-08-20T10:07:29;35.80;50.80
16287;DHT22;8251;53.568;10.018;2023-08-20T10:09:58;35.90;51.10
16287;DHT22;8251;53.568;10.018;2023-08-20T10:12:26;35.90;50.30
16287;DHT22;8251;53.568;10.018;2023-08-20T10:14:55;36.00;50.50
16287;DHT22;8251;53.568;10.018;2023-08-20T10:17:23;36.10;50.20
16287;DHT22;8251;53.568;10.018;2023-08-20T10:19:51;36.20;50.30
16287;DHT22;8251;53.568;10.018;2023-08-20T10:22:18;36.30;49.40
16287;DHT22;8251;53.568;10.018;2023-08-20T10:24:49;36.40;49.20
16287;DHT22;8251;53.568;10.018;2023-08-20T10:27:27;36.40;49.00
16287;DHT22;8251;53.568;10.018;2023-08-20T10:29:58;36.30;48.90
16287;DHT22;8251;53.568;10.018;2023-08-20T10:32:44;36.10;49.30
16287;DHT22;8251;53.568;10.018;2023-08-20T10:35:11;35.90;49.40
16287;DHT22;8251;53.568;10.018;2023-08-20T10:37:38;35.60;49.40
16287;DHT22;8251;53.568;10.018;2023-08-20T10:40:07;35.50;49.40
16287;DHT22;8251;53.568;10.018;2023-08-20T10:42:41;35.30;49.30
16287;DHT22;8251;53.568;10.018;2023-08-20T10:45:12;35.40;49.30
16287;DHT22;8251;53.568;10.018;2023-08-20T10:47:45;35.50;50.10
16287;DHT22;8251;53.568;10.018;2023-08-20T10:50:16;35.60;50.10
16287;DHT22;8251;53.568;10.018;2023-08-20T10:52:47;35.30;50.50
16287;DHT22;8251;53.568;10.018;2023-08-20T10:55:15;35.20;50.60
16287;DHT22;8251;53.568;10.018;2023-08-20T10:57:42;35.20;50.10
16287;DHT22;8251;53.568;10.018;2023-08-20T11:00:15;34.90;50.40
16287;DHT22;8251;53.568;10.018;2023-08-20T11:02:43;34.80;51.00
16287;DHT22;8251;53.568;10.018;2023-08-20T11:05:20;34.70;50.60
16287;DHT22;8251;53.568;10.018;2023-08-20T11:07:48;34.80;50.70
16287;DHT22;8251;53.568;10.018;2023-08-20T11:10:16;34.80;50.50
16287;DHT22;8251;53.568;10.018;2023-08-20T11:12:45;34.60;50.20
16287;DHT22;8251;53.568;10.018;2023-08-20T11:15:14;34.50;51.70
16287;DHT22;8251;53.568;10.018;2023-08-20T11:17:41;34.50;51.90
16287;DHT22;8251;53.568;10.018;2023-08-20T11:20:09;34.30;51.70
16287;DHT22;8251;53.568;10.018;2023-08-20T11:22:38;34.20;51.40
16287;DHT22;8251;53.568;10.018;2023-08-20T11:25:06;34.00;51.40
16287;DHT22;8251;53.568;10.018;2023-08-20T11:27:33;34.00;51.90
16287;DHT22;8251;53.568;10.018;2023-08-20T11:30:00;34.00;51.90
16287;DHT22;8251;53.568;10.018;2023-08-20T11:32:31;34.20;52.30
16287;DHT22;8251;53.568;10.018;2023-08-20T11:34:58;34.40;51.90
16287;DHT22;8251;53.568;10.018;2023-08-20T11:37:25;34.60;51.30
16287;DHT22;8251;53.568;10.018;2023-08-20T11:39:53;34.80;50.70
16287;DHT22;8251;53.568;10.018;2023-08-20T11:42:20;34.90;51.20
16287;DHT22;8251;53.568;10.018;2023-08-20T11:44:47;35.00;50.70
16287;DHT22;8251;53.568;10.018;2023-08-20T11:47:16;34.80;50.30
16287;DHT22;8251;53.568;10.018;2023-08-20T11:49:44;34.80;51.20
16287;DHT22;8251;53.568;10.018;2023-08-20T11:52:11;34.80;51.30
16287;DHT22;8251;53.568;10.018;2023-08-20T11:54:39;34.70;50.60
16287;DHT22;8251;53.568;10.018;2023-08-20T11:57:06;34.60;50.50
16287;DHT22;8251;53.568;10.018;2023-08-20T11:59:33;34.50;51.10
16287;DHT22;8251;53.568;10.018;2023-08-20T12:02:02;34.40;51.20
16287;DHT22;8251;53.568;10.018;2023-08-20T12:04:30;34.20;51.40
16287;DHT22;8251;53.568;10.018;2023-08-20T12:07:08;34.10;51.90
16287;DHT22;8251;53.568;10.018;2023-08-20T12:09:35;34.00;51.90
16287;DHT22;8251;53.568;10.018;2023-08-20T12:12:05;33.80;50.60
16287;DHT22;8251;53.568;10.018;2023-08-20T12:14:32;33.70;52.10
16287;DHT22;8251;53.568;10.018;2023-08-20T12:17:00;33.80;52.90
16287;DHT22;8251;53.568;10.018;2023-08-20T12:19:28;34.00;52.40
16287;DHT22;8251;53.568;10.018;2023-08-20T12:21:55;34.10;52.70
16287;DHT22;8251;53.568;10.018;2023-08-20T12:24:23;34.10;52.50
16287;DHT22;8251;53.568;10.018;2023-08-20T12:26:51;34.00;53.00
16287;DHT22;8251;53.568;10.018;2023-08-20T12:29:18;34.10;52.90
16287;DHT22;8251;53.568;10.018;2023-08-20T12:31:45;34.20;51.50
16287;DHT22;8251;53.568;10.018;2023-08-20T12:34:12;34.30;51.70
16287;DHT22;8251;53.568;10.018;2023-08-20T12:36:39;34.40;51.90
16287;DHT22;8251;53.568;10.018;2023-08-20T12:39:06;34.40;51.20
16287;DHT22;8251;53.568;10.018;2023-08-20T12:41:38;34.30;51.50
16287;DHT22;8251;53.568;10.018;2023-08-20T12:44:10;34.30;51.60
16287;DHT22;8251;53.568;10.018;2023-08-20T12:46:39;34.30;51.30
16287;DHT22;8251;53.568;10.018;2023-08-20T12:49:06;34.30;51.70
16287;DHT22;8251;53.568;10.018;2023-08-20T12:51:33;34.30;50.30
16287;DHT22;8251;53.568;10.018;2023-08-20T12:53:59;34.40;50.20
16287;DHT22;8251;53.568;10.018;2023-08-20T12:56:26;34.50;50.20
16287;DHT22;8251;53.568;10.018;2023-08-20T12:58:54;34.60;50.30
16287;DHT22;8251;53.568;10.018;2023-08-20T13:01:21;34.70;50.00
16287;DHT22;8251;53.568;10.018;2023-08-20T13:03:49;34.80;50.00
16287;DHT22;8251;53.568;10.018;2023-08-20T13:06:16;34.90;49.50
16287;DHT22;8251;53.568;10.018;2023-08-20T13:08:44;34.90;50.10
16287;DHT22;8251;53.568;10.018;2023-08-20T13:11:13;34.90;49.50
16287;DHT22;8251;53.568;10.018;2023-08-20T13:13:43;35.00;48.40
16287;DHT22;8251;53.568;10.018;2023-08-20T13:16:12;35.00;48.20
16287;DHT22;8251;53.568;10.018;2023-08-20T13:18:40;35.00;48.40
16287;DHT22;8251;53.568;10.018;2023-08-20T13:21:09;35.10;48.80
16287;DHT22;8251;53.568;10.018;2023-08-20T13:23:36;35.10;48.80
16287;DHT22;8251;53.568;10.018;2023-08-20T13:26:03;35.10;48.90
16287;DHT22;8251;53.568;10.018;2023-08-20T13:28:30;35.10;49.00
16287;DHT22;8251;53.568;10.018;2023-08-20T13:30:56;35.00;49.20
16287;DHT22;8251;53.568;10.018;2023-08-20T13:33:25;34.80;48.70
16287;DHT22;8251;53.568;10.018;2023-08-20T13:35:51;34.80;49.20
16287;DHT22;8251;53.568;10.018;2023-08-20T13:38:18;34.60;49.70
16287;DHT22;8251;53.568;10.018;2023-08-20T13:40:46;34.40;49.80
16287;DHT22;8251;53.568;10.018;2023-08-20T13:43:14;34.20;51.00
16287;DHT22;8251;53.568;10.018;2023-08-20T13:45:41;34.00;51.10
16287;DHT22;8251;53.568;10.018;2023-08-20T13:48:07;33.90;51.10
16287;DHT22;8251;53.568;10.018;2023-08-20T13:50:36;33.70;50.70
16287;DHT22;8251;53.568;10.018;2023-08-20T13:53:03;33.60;50.90
16287;DHT22;8251;53.568;10.018;2023-08-20T13:55:30;33.40;51.40
16287;DHT22;8251;53.568;10.018;2023-08-20T13:57:57;33.20;51.70
16287;DHT22;8251;53.568;10.018;2023-08-20T14:00:24;33.00;52.40
16287;DHT22;8251;53.568;10.018;2023-08-20T14:02:51;32.90;52.00
16287;DHT22;8251;53.568;10.018;2023-08-20T14:05:18;32.80;52.00
16287;DHT22;8251;53.568;10.018;2023-08-20T14:07:49;32.70;52.50
16287;DHT22;8251;53.568;10.018;2023-08-20T14:10:17;32.60;53.40
16287;DHT22;8251;53.568;10.018;2023-08-20T14:12:44;32.60;53.40
16287;DHT22;8251;53.568;10.018;2023-08-20T14:15:11;32.50;53.30
16287;DHT22;8251;53.568;10.018;2023-08-20T14:17:38;32.40;52.50
16287;DHT22;8251;53.568;10.018;2023-08-20T14:20:06;32.40;53.80
16287;DHT22;8251;53.568;10.018;2023-08-20T14:22:34;32.40;53.90
16287;DHT22;8251;53.568;10.018;2023-08-20T14:25:02;32.40;53.60
16287;DHT22;8251;53.568;10.018;2023-08-20T14:27:32;32.40;53.30
16287;DHT22;8251;53.568;10.018;2023-08-20T14:30:05;32.40;53.40
16287;DHT22;8251;53.568;10.018;2023-08-20T14:32:33;32.40;53.80
16287;DHT22;8251;53.568;10.018;2023-08-20T14:35:00;32.30;53.90
16287;DHT22;8251;53.568;10.018;2023-08-20T14:37:30;32.30;52.70
16287;DHT22;8251;53.568;10.018;2023-08-20T14:40:05;32.20;53.00
16287;DHT22;8251;53.568;10.018;2023-08-20T14:42:35;32.10;52.50
16287;DHT22;8251;53.568;10.018;2023-08-20T14:45:02;31.90;53.10
16287;DHT22;8251;53.568;10.018;2023-08-20T14:47:29;31.80;53.70
16287;DHT22;8251;53.568;10.018;2023-08-20T14:49:56;31.70;53.40
16287;DHT22;8251;53.568;10.018;2023-08-20T14:52:23;31.70;54.10
16287;DHT22;8251;53.568;10.018;2023-08-20T14:54:50;31.50;54.50
16287;DHT22;8251;53.568;10.018;2023-08-20T14:57:19;31.60;53.60
16287;DHT22;8251;53.568;10.018;2023-08-20T14:59:46;31.60;53.00
16287;DHT22;8251;53.568;10.018;2023-08-20T15:02:12;31.60;53.90
16287;DHT22;8251;53.568;10.018;2023-08-20T15:04:39;31.70;54.00
16287;DHT22;8251;53.568;10.018;2023-08-20T15:07:06;31.80;54.50
16287;DHT22;8251;53.568;10.018;2023-08-20T15:09:33;31.80;54.30
16287;DHT22;8251;53.568;10.018;2023-08-20T15:12:00;31.80;53.70
16287;DHT22;8251;53.568;10.018;2023-08-20T15:14:28;31.80;53.80
16287;DHT22;8251;53.568;10.018;2023-08-20T15:16:55;31.70;53.20
16287;DHT22;8251;53.568;10.018;2023-08-20T15:19:22;31.60;53.90
16287;DHT22;8251;53.568;10.018;2023-08-20T15:21:48;31.70;54.00
16287;DHT22;8251;53.568;10.018;2023-08-20T15:24:15;31.70;54.30
16287;DHT22;8251;53.568;10.018;2023-08-20T15:26:42;31.60;54.30
16287;DHT22;8251;53.568;10.018;2023-08-20T15:29:09;31.60;54.30
16287;DHT22;8251;53.568;10.018;2023-08-20T15:31:38;31.50;53.90
16287;DHT22;8251;53.568;10.018;2023-08-20T15:34:05;31.50;53.90
16287;DHT22;8251;53.568;10.018;2023-08-20T15:36:31;31.40;53.30